Time;durP1;ratioP1;P1;durP2;ratioP2;P2;SDS_P1;SDS_P2;PMS_P1;PMS_P2;Temp;Humidity;BMP_temperature;BMP_pressure;BME280_temperature;BME280_humidity;BME280_pressure;Samples;Min_cycle;Max_cycle;Signal;HPM_P1;HPM_P2
2022/03/31 00:00:13;;;;;;;12.48;4.22;;;;;;;5.68;70.21;98728.84;5055955;28;20090;-79
2022/03/31 00:02:39;;;;;;;13.95;4.40;;;;;;;5.79;70.06;98730.81;5055494;28;20055;-79
2022/03/31 00:05:05;;;;;;;9.90;3.83;;;;;;;5.71;71.63;98726.56;5055088;28;20503;-79
2022/03/31 00:07:30;;;;;;;10.15;4.03;;;;;;;5.85;71.12;98728.09;5054862;28;20343;-79
2022/03/31 00:09:55;;;;;;;6.85;3.13;;;;;;;5.76;70.75;98724.03;5055541;28;20102;-79
2022/03/31 00:12:35;;;;;;;7.07;3.33;;;;;;;5.62;72.09;98719.81;5055113;28;20108;-80
2022/03/31 00:15:01;;;;;;;8.00;3.85;;;;;;;5.69;72.13;98720.63;5055901;28;20032;-79
2022/03/31 00:17:26;;;;;;;8.27;3.47;;;;;;;5.69;72.49;98720.63;5054970;28;20383;-78
2022/03/31 00:19:51;;;;;;;10.40;3.43;;;;;;;5.63;72.31;98721.47;5055217;28;20090;-79
2022/03/31 00:22:17;;;;;;;12.13;4.63;;;;;;;5.59;72.24;98709.56;5053638;28;20264;-77
2022/03/31 00:24:42;;;;;;;10.83;3.53;;;;;;;5.60;72.35;98713.88;5037686;28;20478;-76
2022/03/31 00:27:08;;;;;;;9.63;4.00;;;;;;;5.57;72.88;98703.59;5056949;28;20025;-77
2022/03/31 00:29:33;;;;;;;11.77;4.35;;;;;;;5.62;73.27;98706.47;5057248;28;20024;-78
2022/03/31 00:31:58;;;;;;;10.43;4.50;;;;;;;5.62;72.74;98706.47;5057515;28;20033;-78
2022/03/31 00:34:24;;;;;;;11.23;3.93;;;;;;;5.53;73.81;98700.56;5056843;28;20106;-78
2022/03/31 00:36:49;;;;;;;7.70;3.50;;;;;;;5.52;73.85;98703.44;5056678;28;20123;-77
2022/03/31 00:39:29;;;;;;;19.20;4.70;;;;;;;5.55;74.06;98703.03;5057752;28;20032;-76
2022/03/31 00:41:55;;;;;;;8.52;4.03;;;;;;;5.45;74.55;98705.31;5057200;28;20032;-77
2022/03/31 00:44:21;;;;;;;11.40;4.18;;;;;;;5.42;74.66;98703.06;5057053;28;20033;-75
2022/03/31 00:46:51;;;;;;;10.30;4.68;;;;;;;5.36;74.53;98703.94;5056670;28;20033;-76
2022/03/31 00:49:17;;;;;;;8.75;4.20;;;;;;;5.34;73.82;98700.66;5057102;28;20467;-79
2022/03/31 00:51:42;;;;;;;10.18;4.05;;;;;;;5.32;74.56;98698.22;5056543;28;20078;-79
2022/03/31 00:54:09;;;;;;;14.37;4.07;;;;;;;5.26;75.47;98699.06;5058777;28;20036;-77
2022/03/31 00:56:35;;;;;;;8.20;3.65;;;;;;;5.30;75.00;98692.25;5058040;28;20342;-77
2022/03/31 00:59:04;;;;;;;10.32;4.45;;;;;;;5.28;75.35;98690.84;5056744;28;20115;-76
2022/03/31 01:01:31;;;;;;;8.25;3.60;;;;;;;5.23;75.61;98686.94;5057178;28;20132;-77
2022/03/31 01:03:58;;;;;;;8.68;3.92;;;;;;;5.30;75.27;98688.78;5056371;28;20124;-76
2022/03/31 01:06:23;;;;;;;8.30;3.78;;;;;;;5.30;75.67;98691.44;5698713;22;20016;-76
2022/03/31 01:08:49;;;;;;;8.87;3.90;;;;;;;5.30;75.71;98684.25;5035063;28;20045;-76
2022/03/31 01:13:39;;;;;;;8.32;3.60;;;;;;;5.14;75.61;98682.06;5280796;22;20317;-78
2022/03/31 01:16:05;;;;;;;9.97;3.63;;;;;;;5.22;75.79;98687.97;5056309;28;20052;-76
2022/03/31 01:18:30;;;;;;;13.63;4.10;;;;;;;5.28;75.62;98669.47;5057339;28;20264;-77
2022/03/31 01:20:55;;;;;;;9.53;3.50;;;;;;;5.30;75.39;98678.09;5056329;28;20035;-78
2022/03/31 01:23:21;;;;;;;8.95;4.43;;;;;;;5.17;76.19;98669.13;5056995;28;20317;-77
2022/03/31 01:25:47;;;;;;;12.93;3.90;;;;;;;5.30;75.15;98662.88;5057275;28;20063;-78
2022/03/31 01:28:12;;;;;;;10.15;4.22;;;;;;;5.22;75.56;98660.44;5056448;28;20464;-76
2022/03/31 01:30:38;;;;;;;7.65;3.55;;;;;;;5.18;75.34;98665.41;5061865;28;20025;-76
2022/03/31 01:33:03;;;;;;;11.20;3.83;;;;;;;5.16;75.40;98664.81;5056427;28;20037;-76
2022/03/31 01:35:29;;;;;;;14.07;4.20;;;;;;;5.14;75.35;98664.19;5054974;28;20477;-76
2022/03/31 01:37:54;;;;;;;14.77;4.70;;;;;;;5.19;74.71;98661.72;5056094;28;20361;-77
2022/03/31 01:40:19;;;;;;;9.60;3.40;;;;;;;5.04;75.57;98655.81;5056057;28;20290;-77
2022/03/31 01:42:46;;;;;;;12.02;4.03;;;;;;;5.12;75.10;98660.91;5056112;28;20087;-77
2022/03/31 01:45:15;;;;;;;11.05;4.25;;;;;;;5.09;75.78;98655.19;5055621;28;20036;-76
2022/03/31 01:47:42;;;;;;;12.63;5.07;;;;;;;4.97;75.63;98652.38;5056798;28;20499;-79
2022/03/31 01:50:09;;;;;;;11.55;5.45;;;;;;;4.88;76.26;98650.97;5055944;28;20048;-77
2022/03/31 01:52:35;;;;;;;9.40;4.75;;;;;;;4.80;76.86;98636.03;5056326;28;20078;-77
2022/03/31 01:55:01;;;;;;;13.18;5.03;;;;;;;4.80;76.44;98640.53;5055800;28;20029;-76
2022/03/31 01:57:26;;;;;;;10.82;4.35;;;;;;;4.90;77.40;98635.56;5055476;28;20032;-76
2022/03/31 01:59:52;;;;;;;13.10;4.45;;;;;;;4.96;77.11;98642.72;5055988;28;20037;-77
2022/03/31 02:02:18;;;;;;;10.80;4.28;;;;;;;4.87;76.74;98635.97;5055787;28;20021;-76
2022/03/31 02:04:43;;;;;;;11.23;4.25;;;;;;;4.84;77.45;98631.88;5055171;28;20033;-78
2022/03/31 02:07:09;;;;;;;11.52;4.32;;;;;;;4.78;77.28;98638.06;5055319;28;20155;-77
2022/03/31 02:09:35;;;;;;;15.30;5.10;;;;;;;4.79;77.27;98625.56;5055484;28;20045;-76
2022/03/31 02:12:02;;;;;;;13.95;4.47;;;;;;;4.81;77.37;98621.66;5055146;28;20039;-76
2022/03/31 02:14:27;;;;;;;10.50;4.55;;;;;;;4.79;77.76;98618.38;5054891;28;20040;-76
2022/03/31 02:16:53;;;;;;;12.32;4.25;;;;;;;4.88;77.59;98616.25;5055351;28;20029;-76
2022/03/31 02:19:18;;;;;;;9.93;4.53;;;;;;;4.85;77.87;98611.34;5055083;28;20040;-76
2022/03/31 02:21:46;;;;;;;10.50;4.03;;;;;;;4.93;77.22;98613.78;5054841;28;20482;-76
2022/03/31 02:24:12;;;;;;;12.13;4.70;;;;;;;4.84;77.94;98604.38;5054601;28;20769;-76
2022/03/31 02:26:38;;;;;;;9.80;4.45;;;;;;;4.81;77.67;98610.16;5054995;28;20025;-76
2022/03/31 02:29:04;;;;;;;11.20;4.22;;;;;;;4.82;76.83;98604.59;5054387;28;20029;-77
2022/03/31 02:31:30;;;;;;;10.38;5.03;;;;;;;4.78;77.56;98600.72;5054535;28;20098;-77
2022/03/31 02:33:56;;;;;;;;;;;;;;;4.85;77.38;98600.66;5054926;28;20033;-77
2022/03/31 02:36:22;;;;;;;10.15;4.95;;;;;;;4.77;77.82;98598.25;5054379;28;19966;-76
2022/03/31 02:38:47;;;;;;;;;;;;;;;4.74;77.59;98604.03;5055000;28;20037;-76
2022/03/31 02:41:13;;;;;;;9.90;4.50;;;;;;;4.74;78.26;98593.34;5054596;28;20275;-76
2022/03/31 02:43:39;;;;;;;9.38;4.15;;;;;;;4.79;78.00;98594.34;5054763;28;20037;-76
2022/03/31 02:46:04;;;;;;;8.57;4.40;;;;;;;4.79;78.39;98596.19;5054848;28;20025;-76
2022/03/31 02:48:30;;;;;;;13.38;4.95;;;;;;;4.70;77.78;98590.28;5054489;28;20090;-76
2022/03/31 02:50:55;;;;;;;9.55;4.40;;;;;;;4.72;78.18;98588.22;5054329;28;20032;-78
2022/03/31 02:56:05;;;;;;;11.98;4.35;;;;;;;4.67;78.26;98582.69;5056667;28;20036;-76
2022/03/31 02:58:30;;;;;;;12.07;4.80;;;;;;;4.66;77.80;98582.94;5057276;28;20025;-77
2022/03/31 03:00:56;;;;;;;10.20;4.70;;;;;;;4.60;77.51;98573.91;5058857;28;20044;-77
2022/03/31 03:03:22;;;;;;;11.35;4.68;;;;;;;4.56;77.80;98574.53;5058946;28;20498;-78
2022/03/31 03:05:48;;;;;;;9.23;4.50;;;;;;;4.58;77.75;98569.81;5054789;28;20123;-77
2022/03/31 03:08:14;;;;;;;12.45;5.38;;;;;;;4.67;78.60;98565.88;5056151;28;20029;-81
2022/03/31 03:10:40;;;;;;;15.10;5.40;;;;;;;4.74;78.16;98561.34;5054730;28;20040;-76
2022/03/31 03:13:06;;;;;;;;;;;;;;;4.69;77.93;98563.81;5058376;28;20053;-76
2022/03/31 03:15:31;;;;;;;11.20;5.00;;;;;;;4.54;78.55;98554.22;5056611;28;19963;-76
2022/03/31 03:17:57;;;;;;;12.27;5.00;;;;;;;4.56;78.78;98547.88;5054829;28;20032;-76
2022/03/31 03:20:24;;;;;;;9.45;4.07;;;;;;;4.64;78.92;98555.66;5054107;28;20025;-76
2022/03/31 03:22:51;;;;;;;14.02;4.47;;;;;;;4.58;78.82;98556.47;5055082;28;20033;-76
2022/03/31 03:25:18;;;;;;;10.88;4.45;;;;;;;4.59;79.26;98558.94;5055441;28;20031;-77
2022/03/31 03:27:44;;;;;;;11.70;5.03;;;;;;;4.57;78.71;98554.84;5054644;28;20059;-76
2022/03/31 03:30:10;;;;;;;8.85;4.20;;;;;;;4.60;79.24;98560.59;5054325;28;20459;-76
2022/03/31 03:32:36;;;;;;;14.13;5.55;;;;;;;4.65;78.94;98559.94;5053535;28;20112;-77
2022/03/31 03:35:03;;;;;;;;;;;;;;;4.63;79.03;98554.00;5053867;28;20069;-76
2022/03/31 03:37:28;;;;;;;12.30;4.77;;;;;;;4.54;79.62;98558.75;5053920;28;20297;-76
2022/03/31 03:39:54;;;;;;;14.87;5.87;;;;;;;4.61;79.92;98559.56;5053462;28;20112;-77
2022/03/31 03:42:20;;;;;;;;;;;;;;;4.62;80.01;98561.19;5054225;28;20492;-77
2022/03/31 03:44:45;;;;;;;15.45;5.63;;;;;;;4.54;80.50;98561.41;5055331;28;19915;-76
2022/03/31 03:47:10;;;;;;;11.57;5.22;;;;;;;4.65;80.35;98559.94;5053585;28;20386;-75
2022/03/31 03:49:36;;;;;;;13.30;5.67;;;;;;;4.62;80.24;98560.38;5053364;28;20090;-76
2022/03/31 03:52:01;;;;;;;16.02;5.53;;;;;;;4.59;80.83;98550.94;5053808;28;20017;-76
2022/03/31 03:54:27;;;;;;;14.82;5.63;;;;;;;4.65;81.26;98557.28;5053956;28;20040;-78
2022/03/31 03:56:52;;;;;;;13.47;5.37;;;;;;;4.72;81.04;98552.72;5054051;28;20467;-77
2022/03/31 03:59:18;;;;;;;10.60;4.90;;;;;;;4.86;81.67;98556.94;5057596;28;20496;-76
2022/03/31 04:01:43;;;;;;;14.20;6.30;;;;;;;4.88;80.90;98554.88;5060313;28;20040;-76
2022/03/31 04:04:09;;;;;;;12.97;5.03;;;;;;;5.02;80.85;98556.44;5060350;28;20025;-78
2022/03/31 04:06:34;;;;;;;14.02;5.63;;;;;;;4.98;80.96;98554.44;5060165;28;20295;-77
2022/03/31 04:09:00;;;;;;;15.60;5.70;;;;;;;4.93;81.48;98555.06;5059625;28;20459;-77
2022/03/31 04:11:25;;;;;;;13.50;5.63;;;;;;;4.94;81.70;98546.03;5059802;28;20114;-76
2022/03/31 04:13:50;;;;;;;14.53;5.53;;;;;;;4.89;82.17;98546.66;5059613;28;20345;-76
2022/03/31 04:16:16;;;;;;;13.83;5.53;;;;;;;4.98;82.87;98554.44;5059620;28;20379;-77
2022/03/31 04:18:42;;;;;;;14.13;5.72;;;;;;;5.02;83.14;98545.75;5059565;28;20025;-79
2022/03/31 04:21:07;;;;;;;13.40;5.27;;;;;;;5.02;82.16;98553.78;5059940;28;20039;-76
2022/03/31 04:23:32;;;;;;;15.13;5.50;;;;;;;4.98;82.48;98546.44;5060027;28;20251;-76
2022/03/31 04:25:58;;;;;;;11.53;5.20;;;;;;;4.96;83.36;98548.50;5060335;28;20029;-76
2022/03/31 04:28:23;;;;;;;14.93;5.63;;;;;;;4.91;84.03;98549.13;5060351;28;20033;-77
2022/03/31 04:30:49;;;;;;;16.15;5.88;;;;;;;4.73;84.80;98544.50;5061385;28;20703;-77
2022/03/31 04:33:14;;;;;;;14.13;5.77;;;;;;;4.66;85.35;98553.59;5062350;28;20037;-77
2022/03/31 04:35:40;;;;;;;14.83;7.03;;;;;;;4.68;85.01;98551.50;5062974;28;20033;-77
2022/03/31 04:38:07;;;;;;;12.55;5.30;;;;;;;4.65;85.38;98546.63;5061950;28;20451;-79
2022/03/31 04:40:32;;;;;;;11.18;4.72;;;;;;;4.55;85.19;98541.72;5062751;28;20048;-79
2022/03/31 04:42:58;;;;;;;15.77;5.87;;;;;;;4.59;86.43;98539.44;5060673;28;20464;-78
2022/03/31 04:45:24;;;;;;;16.38;5.70;;;;;;;4.62;85.91;98536.38;5061940;28;20271;-77
2022/03/31 04:47:49;;;;;;;12.88;5.93;;;;;;;4.64;86.00;98547.66;5060433;28;20041;-77
2022/03/31 04:50:15;;;;;;;12.05;5.05;;;;;;;4.57;85.62;98539.66;5043597;28;20032;-79
2022/03/31 04:52:42;;;;;;;16.50;5.47;;;;;;;4.60;85.43;98541.09;5043699;28;20106;-77
2022/03/31 04:55:08;;;;;;;15.13;6.28;;;;;;;4.54;85.31;98545.41;5062429;28;20052;-78
2022/03/31 04:57:33;;;;;;;14.18;6.95;;;;;;;4.55;86.38;98541.72;5060964;28;20024;-79
2022/03/31 04:59:58;;;;;;;11.63;4.77;;;;;;;4.57;85.42;98536.19;5062030;28;20045;-79
2022/03/31 05:02:24;;;;;;;17.17;5.78;;;;;;;4.57;85.93;98530.84;5061514;28;20076;-77
2022/03/31 05:04:49;;;;;;;12.47;5.33;;;;;;;4.63;86.10;98525.50;5061021;28;20467;-78
2022/03/31 05:07:15;;;;;;;12.38;5.25;;;;;;;4.69;84.92;98537.94;5045056;28;20271;-78
2022/03/31 05:09:41;;;;;;;16.10;5.90;;;;;;;4.72;86.17;98536.72;5059385;28;20053;-77
2022/03/31 05:12:08;;;;;;;15.52;5.75;;;;;;;4.71;85.58;98527.88;5057737;28;20036;-78
2022/03/31 05:14:33;;;;;;;11.65;4.82;;;;;;;4.75;85.37;98537.09;5059747;28;20105;-79
2022/03/31 05:16:59;;;;;;;14.07;5.07;;;;;;;4.72;85.74;98536.72;5060316;28;20448;-79
2022/03/31 05:19:25;;;;;;;11.32;5.28;;;;;;;4.66;85.34;98540.25;5059595;28;20083;-79
2022/03/31 05:21:50;;;;;;;13.37;5.17;;;;;;;4.67;85.00;98528.53;5059648;28;20028;-79
2022/03/31 05:24:16;;;;;;;17.73;6.28;;;;;;;4.63;85.34;98538.81;5062900;28;20063;-79
2022/03/31 05:26:41;;;;;;;14.02;5.45;;;;;;;4.56;85.06;98534.53;5064234;28;20037;-80
2022/03/31 05:29:07;;;;;;;15.30;5.80;;;;;;;4.56;85.57;98537.19;5063580;28;20455;-79
2022/03/31 05:31:32;;;;;;;10.00;5.55;;;;;;;4.50;85.89;98536.19;5061974;28;20358;-78
2022/03/31 05:33:58;;;;;;;11.43;5.25;;;;;;;4.46;85.20;98532.34;5060932;28;20048;-79
2022/03/31 05:36:23;;;;;;;15.20;6.50;;;;;;;4.49;86.31;98534.56;5060637;28;20053;-79
2022/03/31 05:38:49;;;;;;;11.20;4.53;;;;;;;4.48;85.27;98533.72;5061914;28;20029;-79
2022/03/31 05:41:14;;;;;;;10.05;4.13;;;;;;;4.45;85.21;98528.03;5062166;28;20037;-79
2022/03/31 05:43:39;;;;;;;11.30;4.50;;;;;;;4.46;85.97;98527.81;5061005;28;20039;-79
2022/03/31 05:46:05;;;;;;;17.97;4.80;;;;;;;4.45;85.98;98531.53;5061635;28;20036;-78
2022/03/31 05:48:30;;;;;;;14.50;5.35;;;;;;;4.44;86.56;98537.88;5063792;28;20060;-79
2022/03/31 05:50:55;;;;;;;12.03;5.20;;;;;;;4.44;86.66;98534.38;5047087;28;20044;-79
2022/03/31 05:53:21;;;;;;;16.98;5.45;;;;;;;4.43;87.05;98533.56;5045720;28;20021;-77
2022/03/31 05:55:46;;;;;;;14.00;5.93;;;;;;;4.35;87.38;98533.78;5063836;28;20048;-79
2022/03/31 05:58:11;;;;;;;12.57;4.70;;;;;;;4.34;86.95;98529.50;5064826;28;20027;-78
2022/03/31 06:00:37;;;;;;;15.88;4.85;;;;;;;4.32;87.42;98531.53;5071134;28;20329;-79
2022/03/31 06:03:02;;;;;;;11.45;4.35;;;;;;;4.38;86.95;98535.22;5052887;28;20045;-79
2022/03/31 06:05:29;;;;;;;12.57;5.10;;;;;;;4.51;87.44;98533.31;5070798;28;20036;-78
2022/03/31 06:07:54;;;;;;;15.52;5.75;;;;;;;4.48;87.23;98539.06;5070340;28;20567;-78
2022/03/31 06:10:20;;;;;;;14.93;5.50;;;;;;;4.54;87.50;98543.56;5070222;28;20029;-78
2022/03/31 06:12:46;;;;;;;;;;;;;;;4.44;86.98;98543.22;5069701;28;20033;-77
2022/03/31 06:15:12;;;;;;;14.27;5.60;;;;;;;4.35;88.33;98539.13;5052510;28;19978;-78
2022/03/31 06:17:45;;;;;;;12.18;5.53;;;;;;;4.44;87.28;98540.53;5053466;28;20092;-78
2022/03/31 06:20:12;;;;;;;14.93;5.35;;;;;;;4.33;87.54;98537.69;5051360;28;20040;-78
2022/03/31 06:22:38;;;;;;;18.33;5.97;;;;;;;4.33;87.80;98535.03;5067497;28;20051;-78
2022/03/31 06:25:06;;;;;;;15.00;5.38;;;;;;;4.41;88.24;98535.63;5062280;28;20036;-78
2022/03/31 06:27:32;;;;;;;17.80;6.43;;;;;;;4.35;88.19;98535.63;5059564;28;20037;-77
2022/03/31 06:29:58;;;;;;;;;;;;;;;4.46;88.43;98538.50;5060129;28;20033;-79
2022/03/31 06:32:23;;;;;;;15.00;4.95;;;;;;;4.31;88.27;98535.25;5059936;28;19975;-79
2022/03/31 06:34:49;;;;;;;14.40;5.27;;;;;;;4.52;88.12;98545.63;5058645;28;20114;-79
2022/03/31 06:37:14;;;;;;;10.65;5.18;;;;;;;4.40;88.62;98538.50;5057926;28;20021;-79
2022/03/31 06:39:40;;;;;;;19.97;6.10;;;;;;;4.46;88.30;98546.50;5058734;28;20474;-77
2022/03/31 06:42:06;;;;;;;16.10;6.23;;;;;;;4.50;87.97;98545.00;5058752;28;20255;-79
2022/03/31 06:44:32;;;;;;;13.10;5.47;;;;;;;4.42;87.48;98542.59;5059882;28;20029;-78
2022/03/31 06:46:57;;;;;;;16.13;6.20;;;;;;;4.47;87.98;98540.13;5057498;28;20055;-78
2022/03/31 06:49:23;;;;;;;15.30;5.22;;;;;;;4.49;87.03;98545.22;5058672;28;20454;-80
2022/03/31 06:51:49;;;;;;;15.90;5.88;;;;;;;4.53;87.81;98541.94;5060576;28;20025;-79
2022/03/31 06:54:15;;;;;;;13.65;5.63;;;;;;;4.48;87.49;98541.72;5042413;28;20045;-80
2022/03/31 06:56:40;;;;;;;15.63;6.85;;;;;;;4.46;87.51;98538.50;5059304;28;20036;-79
2022/03/31 06:59:05;;;;;;;19.23;6.00;;;;;;;4.36;87.43;98546.09;5059518;28;20044;-79
2022/03/31 07:01:31;;;;;;;16.02;6.32;;;;;;;4.44;86.59;98542.41;5060843;28;20767;-81
2022/03/31 07:03:56;;;;;;;14.10;5.63;;;;;;;4.35;87.85;98548.97;5043695;28;20052;-79
2022/03/31 07:06:23;;;;;;;17.67;5.70;;;;;;;4.45;88.09;98542.19;5059817;28;20051;-79
2022/03/31 07:08:48;;;;;;;14.07;5.00;;;;;;;4.41;88.20;98548.16;5040991;28;20690;-79
2022/03/31 07:11:14;;;;;;;17.08;6.22;;;;;;;4.62;87.63;98547.03;5059884;28;20024;-79
2022/03/31 07:13:40;;;;;;;;;;;;;;;4.46;88.23;98535.81;5057350;28;20415;-78
2022/03/31 07:16:05;;;;;;;12.15;5.13;;;;;;;4.63;87.23;98546.00;5059091;28;19913;-80
2022/03/31 07:18:31;;;;;;;14.77;6.50;;;;;;;4.59;87.60;98539.44;5060498;28;20117;-79
2022/03/31 07:20:59;;;;;;;20.92;6.43;;;;;;;4.66;88.11;98543.72;5042657;28;20110;-78
2022/03/31 07:23:25;;;;;;;15.38;5.78;;;;;;;4.64;87.81;98544.97;5059866;28;20029;-79
2022/03/31 07:25:55;;;;;;;17.40;6.50;;;;;;;4.56;87.65;98540.69;5061159;28;20029;-81
2022/03/31 07:28:21;;;;;;;18.00;6.30;;;;;;;4.55;88.09;98541.72;5063616;28;20040;-78
2022/03/31 07:30:47;;;;;;;14.32;5.97;;;;;;;4.40;88.72;98538.50;5059484;28;20052;-78
2022/03/31 07:33:13;;;;;;;18.90;6.30;;;;;;;4.50;88.74;98545.00;5057518;28;20387;-78
2022/03/31 07:35:41;;;;;;;16.20;5.88;;;;;;;4.58;88.07;98543.97;5044045;28;20024;-80
2022/03/31 07:38:10;;;;;;;17.25;6.00;;;;;;;4.65;88.39;98536.75;5060644;28;20383;-79
2022/03/31 07:40:37;;;;;;;16.00;5.97;;;;;;;4.64;88.09;98542.31;5062384;28;20074;-79
2022/03/31 07:43:04;;;;;;;20.98;6.88;;;;;;;4.56;88.04;98539.88;5061802;28;20060;-79
2022/03/31 07:45:30;;;;;;;20.73;6.88;;;;;;;4.45;88.47;98530.69;5060989;28;20025;-78
2022/03/31 07:47:56;;;;;;;15.63;6.07;;;;;;;4.50;88.58;98533.53;5056796;28;20107;-79
2022/03/31 07:50:22;;;;;;;16.43;6.83;;;;;;;4.47;88.60;98529.47;5058631;28;20495;-80
2022/03/31 07:52:49;;;;;;;;;;;;;;;4.66;88.56;98526.91;5057278;28;20308;-78
2022/03/31 07:55:16;;;;;;;15.75;6.57;;;;;;;4.66;88.33;98524.25;5058654;28;20255;-79
2022/03/31 07:57:43;;;;;;;14.73;6.57;;;;;;;4.61;89.52;98519.53;5054690;28;20041;-80
2022/03/31 08:00:11;;;;;;;18.95;7.35;;;;;;;4.46;87.95;98522.50;5057546;28;20036;-79
2022/03/31 08:02:39;;;;;;;17.00;5.85;;;;;;;4.39;88.85;98526.19;5060770;28;20036;-79
2022/03/31 08:05:05;;;;;;;22.98;7.25;;;;;;;4.38;89.18;98524.56;5060280;28;20116;-78
2022/03/31 08:07:30;;;;;;;21.90;8.20;;;;;;;4.54;89.31;98514.22;5058451;28;20155;-78
2022/03/31 08:09:56;;;;;;;20.67;8.23;;;;;;;4.64;89.03;98520.97;5061074;28;20451;-78
2022/03/31 08:12:21;;;;;;;15.00;6.23;;;;;;;4.66;88.48;98518.91;5061157;28;20080;-78
2022/03/31 08:14:46;;;;;;;17.07;7.10;;;;;;;4.68;87.37;98516.81;5060467;28;20288;-78
2022/03/31 08:17:12;;;;;;;15.43;6.13;;;;;;;4.69;88.35;98524.63;5041458;28;20087;-78
2022/03/31 08:19:37;;;;;;;15.35;6.75;;;;;;;4.71;88.79;98522.56;5059342;28;20272;-78
2022/03/31 08:22:04;;;;;;;14.70;6.25;;;;;;;4.57;87.88;98520.16;5059626;28;20040;-79
2022/03/31 08:24:34;;;;;;;13.75;6.22;;;;;;;4.56;87.96;98531.88;5041287;28;20074;-80
2022/03/31 08:26:59;;;;;;;15.60;7.25;;;;;;;4.71;87.53;98529.72;5060251;28;20040;-78
2022/03/31 08:29:25;;;;;;;19.40;6.18;;;;;;;4.74;87.27;98529.31;5042590;28;20029;-79
2022/03/31 08:31:52;;;;;;;;;;;;;;;4.74;87.94;98531.97;5060013;28;20033;-81
2022/03/31 08:34:18;;;;;;;20.27;6.50;;;;;;;4.69;88.50;98527.28;5058217;28;19913;-80
2022/03/31 08:36:43;;;;;;;14.77;6.03;;;;;;;4.74;88.22;98534.66;5039470;28;20044;-81
2022/03/31 08:39:09;;;;;;;16.17;6.37;;;;;;;4.68;88.66;98528.31;5039205;28;20033;-79
2022/03/31 08:41:34;;;;;;;13.38;5.75;;;;;;;4.71;88.14;98541.22;5056743;28;20107;-78
2022/03/31 08:44:00;;;;;;;15.70;6.37;;;;;;;4.81;88.50;98540.78;5058032;28;20062;-81
2022/03/31 08:46:33;;;;;;;16.50;6.40;;;;;;;4.76;88.22;98533.41;5061784;28;20688;-81
2022/03/31 08:48:59;;;;;;;16.10;5.95;;;;;;;4.65;88.13;98534.09;5061166;28;20032;-81
2022/03/31 08:51:25;;;;;;;15.80;6.07;;;;;;;4.72;88.63;98532.19;5059957;28;20036;-79
2022/03/31 08:53:50;;;;;;;15.90;6.32;;;;;;;4.86;88.04;98538.28;5060231;28;20402;-79
2022/03/31 08:56:16;;;;;;;20.17;6.63;;;;;;;4.87;87.96;98535.38;5061523;28;20035;-80
2022/03/31 08:58:45;;;;;;;14.93;6.00;;;;;;;5.01;88.53;98538.81;5061154;28;20056;-80
2022/03/31 09:01:15;;;;;;;12.82;5.47;;;;;;;5.08;88.41;98539.56;5059055;28;20455;-79
2022/03/31 09:03:41;;;;;;;20.20;7.55;;;;;;;5.34;88.06;98541.25;5059061;28;20036;-81
2022/03/31 09:06:10;;;;;;;16.85;6.10;;;;;;;5.45;88.69;98535.19;5058674;28;20063;-79
2022/03/31 09:08:36;;;;;;;14.00;6.47;;;;;;;5.33;87.49;98533.47;5058358;28;20139;-81
2022/03/31 09:11:03;;;;;;;15.48;6.68;;;;;;;5.20;86.56;98542.34;5040852;28;20037;-79
2022/03/31 09:13:31;;;;;;;16.70;6.88;;;;;;;5.15;87.78;98543.03;5040913;28;20041;-81
2022/03/31 09:16:11;;;;;;;16.55;6.55;;;;;;;5.20;86.84;98534.34;5040928;28;20040;-81
2022/03/31 09:18:38;;;;;;;18.83;6.07;;;;;;;5.13;87.26;98544.28;5058694;28;20032;-79
2022/03/31 09:21:06;;;;;;;15.68;5.82;;;;;;;5.07;86.57;98534.44;5058596;28;20028;-79
2022/03/31 09:23:41;;;;;;;16.08;5.55;;;;;;;5.17;87.21;98545.50;5058108;28;20033;-79
2022/03/31 09:26:11;;;;;;;13.05;5.88;;;;;;;5.12;85.46;98547.97;5059086;28;20036;-79
2022/03/31 09:28:37;;;;;;;15.05;5.45;;;;;;;5.06;86.25;98549.66;5040460;28;20025;-79
2022/03/31 09:31:03;;;;;;;13.18;5.15;;;;;;;5.14;86.19;98546.72;5058251;28;20032;-79
2022/03/31 09:33:28;;;;;;;13.50;5.20;;;;;;;5.04;84.27;98543.69;5060816;28;20106;-80
2022/03/31 09:35:58;;;;;;;14.67;5.80;;;;;;;4.93;84.47;98540.91;5042769;28;20116;-80
2022/03/31 09:38:24;;;;;;;13.73;5.45;;;;;;;4.97;84.93;98553.63;5058991;28;20036;-80
2022/03/31 09:40:49;;;;;;;13.60;5.05;;;;;;;4.92;84.24;98548.09;5041169;28;20024;-79
2022/03/31 09:43:14;;;;;;;12.23;4.47;;;;;;;5.00;84.42;98545.19;5058677;28;20117;-78
2022/03/31 09:45:41;;;;;;;11.13;5.10;;;;;;;4.94;84.35;98543.38;5059201;28;20291;-79
2022/03/31 09:48:16;;;;;;;;;;;;;;;4.91;83.46;98543.78;5042609;28;20056;-79
2022/03/31 09:50:42;;;;;;;14.35;4.63;;;;;;;5.09;84.61;98545.72;5058544;28;19913;-79
2022/03/31 09:53:07;;;;;;;13.45;5.05;;;;;;;5.07;85.48;98551.28;5057386;28;20052;-79
2022/03/31 09:55:35;;;;;;;10.52;4.60;;;;;;;5.12;85.83;98548.78;5039377;28;20432;-79
2022/03/31 09:58:00;;;;;;;11.85;5.05;;;;;;;5.06;85.61;98546.16;5057880;28;20509;-79
2022/03/31 10:00:27;;;;;;;12.10;4.00;;;;;;;5.14;85.76;98540.56;5058058;28;20118;-79
2022/03/31 10:02:53;;;;;;;11.75;4.57;;;;;;;5.21;85.01;98550.16;5057722;28;20041;-80
2022/03/31 10:05:21;;;;;;;12.55;5.03;;;;;;;5.13;84.54;98542.44;5058017;28;20029;-79
2022/03/31 10:07:50;;;;;;;12.70;5.25;;;;;;;5.16;83.24;98550.00;5041188;28;20037;-79
2022/03/31 10:10:18;;;;;;;12.70;4.72;;;;;;;5.12;82.98;98546.13;5058168;28;20047;-80
2022/03/31 10:13:00;;;;;;;10.65;5.25;;;;;;;5.16;83.90;98547.34;5105418;22;20036;-79
2022/03/31 10:15:36;;;;;;;13.65;5.78;;;;;;;5.22;83.88;98541.13;5021659;28;20041;-77
2022/03/31 10:18:01;;;;;;;8.25;3.67;;;;;;;5.29;86.14;98541.06;5036788;28;20368;-78
2022/03/31 10:20:27;;;;;;;14.60;5.55;;;;;;;5.25;84.90;98542.53;5038722;28;20038;-78
2022/03/31 10:25:42;;;;;;;14.73;5.75;;;;;;;5.16;83.77;98530.50;5037599;28;20452;-79
2022/03/31 10:28:09;;;;;;;15.35;5.05;;;;;;;5.23;84.48;98533.94;5037721;28;20033;-79
2022/03/31 10:30:35;;;;;;;13.45;5.18;;;;;;;5.19;86.19;98536.22;5038385;28;20445;-79
2022/03/31 10:33:03;;;;;;;14.60;5.53;;;;;;;5.26;85.98;98536.16;5038377;28;20065;-79
2022/03/31 10:35:42;;;;;;;12.40;5.93;;;;;;;5.01;85.73;98538.00;5037814;28;20026;-78
2022/03/31 10:38:13;;;;;;;14.20;5.78;;;;;;;5.15;86.04;98534.19;5020228;28;20133;-78
2022/03/31 10:40:42;;;;;;;15.10;6.22;;;;;;;5.13;86.03;98531.75;5037213;28;20037;-79
2022/03/31 10:43:18;;;;;;;15.75;5.57;;;;;;;5.21;84.73;98531.47;5037555;28;20025;-79
2022/03/31 10:45:44;;;;;;;14.13;5.55;;;;;;;5.11;85.68;98533.00;5037501;28;20472;-78
2022/03/31 10:48:20;;;;;;;16.63;6.65;;;;;;;5.14;86.04;98522.69;5037404;28;20033;-81
2022/03/31 10:51:02;;;;;;;14.73;6.75;;;;;;;5.18;85.67;98521.25;5037245;28;20083;-78
2022/03/31 10:53:29;;;;;;;12.18;5.03;;;;;;;5.24;85.36;98532.88;5035812;28;20048;-78
2022/03/31 10:55:55;;;;;;;17.52;5.85;;;;;;;5.19;86.11;98522.88;5036643;28;20029;-78
2022/03/31 10:58:25;;;;;;;14.15;6.32;;;;;;;5.18;85.77;98523.91;5038506;28;20037;-80
2022/03/31 11:00:52;;;;;;;12.25;5.13;;;;;;;5.24;83.79;98511.53;5037373;28;20041;-79
2022/03/31 11:03:18;;;;;;;15.93;5.35;;;;;;;5.23;84.66;98520.56;5019994;28;20357;-78
2022/03/31 11:05:44;;;;;;;;;;;;;;;5.32;85.53;98515.78;5038569;28;20084;-78
2022/03/31 11:08:09;;;;;;;15.00;6.40;;;;;;;5.38;84.73;98515.72;5042812;28;20295;-78
2022/03/31 11:10:43;;;;;;;17.55;6.25;;;;;;;5.34;82.64;98519.06;5046722;28;20045;-79
2022/03/31 11:13:09;;;;;;;12.18;5.03;;;;;;;5.39;84.62;98514.69;5048127;28;20046;-78
2022/03/31 11:15:34;;;;;;;12.05;5.13;;;;;;;5.32;85.02;98511.28;5047860;28;20079;-78
2022/03/31 11:18:00;;;;;;;13.43;5.40;;;;;;;5.37;82.64;98508.78;5028071;28;20116;-78
2022/03/31 11:20:27;;;;;;;12.95;5.03;;;;;;;5.22;83.28;98506.41;5044514;28;20085;-78
2022/03/31 11:22:55;;;;;;;16.88;5.70;;;;;;;5.25;84.64;98510.50;5044588;28;20044;-79
2022/03/31 11:25:22;;;;;;;14.45;6.15;;;;;;;5.38;84.26;98509.56;5042238;28;20503;-79
2022/03/31 11:27:49;;;;;;;13.52;6.28;;;;;;;5.47;85.22;98505.59;5021817;28;20116;-78
2022/03/31 11:30:18;;;;;;;11.85;5.25;;;;;;;5.46;84.66;98503.97;5039558;28;20036;-77
2022/03/31 11:32:44;;;;;;;14.35;5.82;;;;;;;5.42;82.78;98502.75;5043260;28;20026;-79
2022/03/31 11:35:13;;;;;;;;;;;;;;;5.35;84.32;98499.34;5027488;28;20061;-78
2022/03/31 11:37:49;;;;;;;15.73;5.05;;;;;;;5.54;84.90;98507.19;5044952;28;19908;-79
2022/03/31 11:40:20;;;;;;;15.02;6.82;;;;;;;5.55;84.75;98500.00;5045141;28;20033;-78